sensor_id;sensor_type;location;lat;lon;timestamp;pressure;altitude;pressure_sealevel;temperature;humidity
13209;BME280;6669;42.678;23.332;2023-07-22T00:00:48;94474.06;;;24.49;100.00
13209;BME280;6669;42.678;23.332;2023-07-22T00:03:16;94477.50;;;24.49;100.00
13209;BME280;6669;42.678;23.332;2023-07-22T00:05:44;94477.00;;;24.58;100.00
13209;BME280;6669;42.678;23.332;2023-07-22T00:08:12;94476.19;;;24.57;100.00
13209;BME280;6669;42.678;23.332;2023-07-22T00:10:41;94489.78;;;24.66;100.00
13209;BME280;6669;42.678;23.332;2023-07-22T00:13:11;94494.56;;;24.69;100.00
13209;BME280;6669;42.678;23.332;2023-07-22T00:15:39;94492.16;;;24.68;100.00
13209;BME280;6669;42.678;23.332;2023-07-22T00:18:07;94492.44;;;24.71;100.00
13209;BME280;6669;42.678;23.332;2023-07-22T00:20:37;94492.72;;;24.70;100.00
13209;BME280;6669;42.678;23.332;2023-07-22T00:23:04;94487.94;;;24.67;100.00
13209;BME280;6669;42.678;23.332;2023-07-22T00:25:32;94478.34;;;24.66;100.00
13209;BME280;6669;42.678;23.332;2023-07-22T00:28:00;94483.94;;;24.69;100.00
13209;BME280;6669;42.678;23.332;2023-07-22T00:30:30;94494.25;;;24.55;100.00
13209;BME280;6669;42.678;23.332;2023-07-22T00:32:58;94496.66;;;24.57;100.00
13209;BME280;6669;42.678;23.332;2023-07-22T00:35:27;94494.25;;;24.50;100.00
13209;BME280;6669;42.678;23.332;2023-07-22T00:37:55;94497.13;;;24.38;100.00
13209;BME280;6669;42.678;23.332;2023-07-22T00:40:23;94488.03;;;24.08;100.00
13209;BME280;6669;42.678;23.332;2023-07-22T00:42:51;94498.13;;;24.16;100.00
13209;BME280;6669;42.678;23.332;2023-07-22T00:45:19;94494.13;;;24.14;100.00
13209;BME280;6669;42.678;23.332;2023-07-22T00:47:51;94497.59;;;24.14;100.00
13209;BME280;6669;42.678;23.332;2023-07-22T00:50:20;94505.19;;;23.90;100.00
13209;BME280;6669;42.678;23.332;2023-07-22T00:52:49;94507.38;;;24.09;100.00
13209;BME280;6669;42.678;23.332;2023-07-22T00:55:17;94502.91;;;24.09;100.00
13209;BME280;6669;42.678;23.332;2023-07-22T00:57:45;94508.22;;;24.14;100.00
13209;BME280;6669;42.678;23.332;2023-07-22T01:00:14;94508.47;;;24.18;100.00
13209;BME280;6669;42.678;23.332;2023-07-22T01:02:43;94507.44;;;24.19;100.00
13209;BME280;6669;42.678;23.332;2023-07-22T01:05:13;94506.88;;;24.12;100.00
13209;BME280;6669;42.678;23.332;2023-07-22T01:07:41;94495.13;;;23.97;100.00
13209;BME280;6669;42.678;23.332;2023-07-22T01:10:10;94494.06;;;23.93;100.00
13209;BME280;6669;42.678;23.332;2023-07-22T01:12:38;94477.13;;;24.05;100.00
13209;BME280;6669;42.678;23.332;2023-07-22T01:15:07;94475.25;;;24.05;100.00
13209;BME280;6669;42.678;23.332;2023-07-22T01:17:36;94483.47;;;23.98;100.00
13209;BME280;6669;42.678;23.332;2023-07-22T01:20:06;94485.09;;;24.10;100.00
13209;BME280;6669;42.678;23.332;2023-07-22T01:22:38;94490.97;;;24.12;100.00
13209;BME280;6669;42.678;23.332;2023-07-22T01:25:08;94487.75;;;24.10;100.00
13209;BME280;6669;42.678;23.332;2023-07-22T01:27:36;94489.06;;;24.07;100.00
13209;BME280;6669;42.678;23.332;2023-07-22T01:30:05;94479.19;;;23.97;100.00
13209;BME280;6669;42.678;23.332;2023-07-22T01:32:36;94474.63;;;23.88;100.00
13209;BME280;6669;42.678;23.332;2023-07-22T01:35:06;94464.50;;;23.79;100.00
13209;BME280;6669;42.678;23.332;2023-07-22T01:37:35;94464.44;;;23.64;100.00
13209;BME280;6669;42.678;23.332;2023-07-22T01:40:04;94469.75;;;23.64;100.00
13209;BME280;6669;42.678;23.332;2023-07-22T01:42:40;94475.56;;;23.66;100.00
13209;BME280;6669;42.678;23.332;2023-07-22T01:45:09;94475.56;;;23.66;100.00
13209;BME280;6669;42.678;23.332;2023-07-22T01:47:38;94472.91;;;23.66;100.00
13209;BME280;6669;42.678;23.332;2023-07-22T01:50:07;94469.75;;;23.64;100.00
13209;BME280;6669;42.678;23.332;2023-07-22T01:52:35;94458.03;;;23.55;100.00
13209;BME280;6669;42.678;23.332;2023-07-22T01:55:04;94464.97;;;23.66;100.00
13209;BME280;6669;42.678;23.332;2023-07-22T01:57:32;94463.03;;;23.51;100.00
13209;BME280;6669;42.678;23.332;2023-07-22T02:00:03;94457.22;;;23.54;100.00
13209;BME280;6669;42.678;23.332;2023-07-22T02:02:32;94452.16;;;23.47;100.00
13209;BME280;6669;42.678;23.332;2023-07-22T02:05:00;94449.50;;;23.47;100.00
13209;BME280;6669;42.678;23.332;2023-07-22T02:07:29;94453.75;;;23.48;100.00
13209;BME280;6669;42.678;23.332;2023-07-22T02:09:57;94455.28;;;23.44;100.00
13209;BME280;6669;42.678;23.332;2023-07-22T02:12:25;94461.63;;;23.33;100.00
13209;BME280;6669;42.678;23.332;2023-07-22T02:14:53;94458.44;;;23.36;100.00
13209;BME280;6669;42.678;23.332;2023-07-22T02:17:23;94455.81;;;23.41;100.00
13209;BME280;6669;42.678;23.332;2023-07-22T02:19:51;94461.13;;;23.41;100.00
13209;BME280;6669;42.678;23.332;2023-07-22T02:22:19;94461.09;;;23.36;100.00
13209;BME280;6669;42.678;23.332;2023-07-22T02:24:47;94471.47;;;23.43;100.00
13209;BME280;6669;42.678;23.332;2023-07-22T02:27:15;94476.81;;;23.48;100.00
13209;BME280;6669;42.678;23.332;2023-07-22T02:29:43;94479.22;;;23.49;100.00
13209;BME280;6669;42.678;23.332;2023-07-22T02:32:11;94474.69;;;23.45;100.00
13209;BME280;6669;42.678;23.332;2023-07-22T02:34:40;94487.06;;;23.34;100.00
13209;BME280;6669;42.678;23.332;2023-07-22T02:37:08;94488.63;;;23.30;100.00
13209;BME280;6669;42.678;23.332;2023-07-22T02:39:36;94476.41;;;23.24;100.00
13209;BME280;6669;42.678;23.332;2023-07-22T02:42:05;94481.41;;;23.20;100.00
13209;BME280;6669;42.678;23.332;2023-07-22T02:44:33;94476.00;;;23.10;100.00
13209;BME280;6669;42.678;23.332;2023-07-22T02:47:01;94480.50;;;23.09;100.00
13209;BME280;6669;42.678;23.332;2023-07-22T02:49:29;94480.50;;;23.09;100.00
13209;BME280;6669;42.678;23.332;2023-07-22T02:51:58;94480.50;;;23.09;100.00
13209;BME280;6669;42.678;23.332;2023-07-22T02:54:26;94483.72;;;23.11;100.00
13209;BME280;6669;42.678;23.332;2023-07-22T02:56:54;94479.72;;;23.09;100.00
13209;BME280;6669;42.678;23.332;2023-07-22T02:59:22;94484.25;;;23.13;100.00
13209;BME280;6669;42.678;23.332;2023-07-22T03:01:51;94487.50;;;23.15;100.00
13209;BME280;6669;42.678;23.332;2023-07-22T03:04:19;94486.66;;;23.15;100.00
13209;BME280;6669;42.678;23.332;2023-07-22T03:06:47;94487.13;;;23.07;100.00
13209;BME280;6669;42.678;23.332;2023-07-22T03:09:16;94486.91;;;23.13;100.00
13209;BME280;6669;42.678;23.332;2023-07-22T03:11:44;94482.72;;;23.17;100.00
13209;BME280;6669;42.678;23.332;2023-07-22T03:14:12;94477.41;;;23.17;100.00
13209;BME280;6669;42.678;23.332;2023-07-22T03:16:40;94483.53;;;23.18;100.00
13209;BME280;6669;42.678;23.332;2023-07-22T03:19:08;94490.13;;;23.15;100.00
13209;BME280;6669;42.678;23.332;2023-07-22T03:21:38;94489.09;;;23.16;100.00
13209;BME280;6669;42.678;23.332;2023-07-22T03:24:06;94486.91;;;23.13;100.00
13209;BME280;6669;42.678;23.332;2023-07-22T03:26:35;94482.91;;;23.11;100.00
13209;BME280;6669;42.678;23.332;2023-07-22T03:29:03;94492.44;;;23.07;100.00
13209;BME280;6669;42.678;23.332;2023-07-22T03:31:32;94496.84;;;22.96;100.00
13209;BME280;6669;42.678;23.332;2023-07-22T03:34:00;94503.75;;;22.97;100.00
13209;BME280;6669;42.678;23.332;2023-07-22T03:36:28;94503.69;;;22.92;100.00
13209;BME280;6669;42.678;23.332;2023-07-22T03:38:56;94508.91;;;22.81;100.00
13209;BME280;6669;42.678;23.332;2023-07-22T03:41:24;94506.47;;;22.75;100.00
13209;BME280;6669;42.678;23.332;2023-07-22T03:43:54;94518.69;;;22.76;100.00
13209;BME280;6669;42.678;23.332;2023-07-22T03:46:22;94519.91;;;22.68;100.00
13209;BME280;6669;42.678;23.332;2023-07-22T03:48:50;94524.72;;;22.71;100.00
13209;BME280;6669;42.678;23.332;2023-07-22T03:51:18;94517.81;;;22.70;100.00
13209;BME280;6669;42.678;23.332;2023-07-22T03:53:46;94521.47;;;22.64;100.00
13209;BME280;6669;42.678;23.332;2023-07-22T03:56:14;94529.66;;;22.62;100.00
13209;BME280;6669;42.678;23.332;2023-07-22T03:58:42;94534.19;;;22.62;100.00
13209;BME280;6669;42.678;23.332;2023-07-22T04:01:11;94529.34;;;22.59;100.00
13209;BME280;6669;42.678;23.332;2023-07-22T04:03:40;94544.91;;;22.50;100.00
13209;BME280;6669;42.678;23.332;2023-07-22T04:06:08;94533.72;;;22.43;100.00
13209;BME280;6669;42.678;23.332;2023-07-22T04:08:36;94537.66;;;22.40;100.00
13209;BME280;6669;42.678;23.332;2023-07-22T04:11:04;94535.22;;;22.39;100.00
13209;BME280;6669;42.678;23.332;2023-07-22T04:13:32;94537.88;;;22.39;100.00
13209;BME280;6669;42.678;23.332;2023-07-22T04:16:00;94539.84;;;22.48;100.00
13209;BME280;6669;42.678;23.332;2023-07-22T04:18:29;94538.06;;;22.54;100.00
13209;BME280;6669;42.678;23.332;2023-07-22T04:21:01;94538.41;;;22.63;100.00
13209;BME280;6669;42.678;23.332;2023-07-22T04:23:29;94531.63;;;22.72;100.00
13209;BME280;6669;42.678;23.332;2023-07-22T04:26:02;94534.75;;;22.69;100.00
13209;BME280;6669;42.678;23.332;2023-07-22T04:28:31;94535.38;;;22.76;100.00
13209;BME280;6669;42.678;23.332;2023-07-22T04:30:59;94545.50;;;22.84;100.00
13209;BME280;6669;42.678;23.332;2023-07-22T04:33:29;94550.25;;;22.82;100.00
13209;BME280;6669;42.678;23.332;2023-07-22T04:35:59;94559.78;;;22.78;100.00
13209;BME280;6669;42.678;23.332;2023-07-22T04:38:27;94559.22;;;22.76;100.00
13209;BME280;6669;42.678;23.332;2023-07-22T04:40:55;94560.56;;;22.79;100.00
13209;BME280;6669;42.678;23.332;2023-07-22T04:43:23;94565.66;;;22.85;100.00
13209;BME280;6669;42.678;23.332;2023-07-22T04:45:51;94560.16;;;22.92;100.00
13209;BME280;6669;42.678;23.332;2023-07-22T04:48:20;94556.25;;;23.00;100.00
13209;BME280;6669;42.678;23.332;2023-07-22T04:50:50;94563.19;;;23.06;100.00
13209;BME280;6669;42.678;23.332;2023-07-22T04:53:19;94552.13;;;23.14;100.00
13209;BME280;6669;42.678;23.332;2023-07-22T04:55:47;94549.63;;;23.30;100.00
13209;BME280;6669;42.678;23.332;2023-07-22T04:58:14;94555.22;;;23.33;100.00
13209;BME280;6669;42.678;23.332;2023-07-22T05:00:43;94549.97;;;23.39;100.00
13209;BME280;6669;42.678;23.332;2023-07-22T05:03:11;94553.50;;;23.49;100.00
13209;BME280;6669;42.678;23.332;2023-07-22T05:05:41;94572.63;;;23.57;100.00
13209;BME280;6669;42.678;23.332;2023-07-22T05:08:11;94567.66;;;23.65;100.00
13209;BME280;6669;42.678;23.332;2023-07-22T05:10:39;94574.34;;;23.73;100.00
13209;BME280;6669;42.678;23.332;2023-07-22T05:13:07;94575.94;;;23.74;100.00
13209;BME280;6669;42.678;23.332;2023-07-22T05:15:35;94574.31;;;23.68;100.00
13209;BME280;6669;42.678;23.332;2023-07-22T05:18:03;94574.06;;;23.75;100.00
13209;BME280;6669;42.678;23.332;2023-07-22T05:20:31;94569.31;;;23.77;100.00
13209;BME280;6669;42.678;23.332;2023-07-22T05:22:59;94566.00;;;23.92;100.00
13209;BME280;6669;42.678;23.332;2023-07-22T05:25:28;94570.78;;;23.95;100.00
13209;BME280;6669;42.678;23.332;2023-07-22T05:27:56;94573.47;;;24.05;100.00
13209;BME280;6669;42.678;23.332;2023-07-22T05:30:24;94576.13;;;24.05;100.00
13209;BME280;6669;42.678;23.332;2023-07-22T05:33:01;94574.81;;;24.08;100.00
13209;BME280;6669;42.678;23.332;2023-07-22T05:35:30;94572.16;;;24.08;100.00
13209;BME280;6669;42.678;23.332;2023-07-22T05:37:58;94577.78;;;24.16;100.00
13209;BME280;6669;42.678;23.332;2023-07-22T05:40:27;94585.50;;;24.23;100.00
13209;BME280;6669;42.678;23.332;2023-07-22T05:42:55;94580.50;;;24.32;100.00
13209;BME280;6669;42.678;23.332;2023-07-22T05:45:23;94580.28;;;24.34;100.00
13209;BME280;6669;42.678;23.332;2023-07-22T05:47:51;94581.03;;;24.29;100.00
13209;BME280;6669;42.678;23.332;2023-07-22T05:50:19;94582.94;;;24.39;100.00
13209;BME280;6669;42.678;23.332;2023-07-22T05:52:47;94583.19;;;24.42;100.00
13209;BME280;6669;42.678;23.332;2023-07-22T05:55:15;94572.06;;;24.45;100.00
13209;BME280;6669;42.678;23.332;2023-07-22T05:57:46;94570.50;;;24.55;100.00
13209;BME280;6669;42.678;23.332;2023-07-22T06:00:14;94573.16;;;24.60;100.00
13209;BME280;6669;42.678;23.332;2023-07-22T06:02:42;94573.69;;;24.52;100.00
13209;BME280;6669;42.678;23.332;2023-07-22T06:05:10;94587.31;;;24.66;100.00
13209;BME280;6669;42.678;23.332;2023-07-22T06:07:38;94586.00;;;24.68;100.00
13209;BME280;6669;42.678;23.332;2023-07-22T06:10:07;94600.38;;;24.77;100.00
13209;BME280;6669;42.678;23.332;2023-07-22T06:12:36;94596.66;;;24.84;100.00
13209;BME280;6669;42.678;23.332;2023-07-22T06:15:08;94602.78;;;25.00;100.00
13209;BME280;6669;42.678;23.332;2023-07-22T06:17:36;94606.84;;;25.12;100.00
13209;BME280;6669;42.678;23.332;2023-07-22T06:20:05;94613.72;;;25.19;100.00
13209;BME280;6669;42.678;23.332;2023-07-22T06:22:33;94608.41;;;25.19;100.00
13209;BME280;6669;42.678;23.332;2023-07-22T06:25:01;94608.19;;;25.30;100.00
13209;BME280;6669;42.678;23.332;2023-07-22T06:27:29;94619.63;;;25.36;100.00
13209;BME280;6669;42.678;23.332;2023-07-22T06:29:57;94617.78;;;25.37;100.00
13209;BME280;6669;42.678;23.332;2023-07-22T06:32:27;94605.53;;;25.41;100.00
13209;BME280;6669;42.678;23.332;2023-07-22T06:34:57;94613.81;;;25.50;100.00
13209;BME280;6669;42.678;23.332;2023-07-22T06:37:25;94618.56;;;25.53;100.00
13209;BME280;6669;42.678;23.332;2023-07-22T06:39:53;94624.72;;;25.53;100.00
13209;BME280;6669;42.678;23.332;2023-07-22T06:42:21;94628.72;;;25.56;100.00
13209;BME280;6669;42.678;23.332;2023-07-22T06:44:49;94620.16;;;25.69;100.00
13209;BME280;6669;42.678;23.332;2023-07-22T06:47:17;94624.16;;;25.77;100.00
13209;BME280;6669;42.678;23.332;2023-07-22T06:49:46;94625.47;;;25.85;100.00
13209;BME280;6669;42.678;23.332;2023-07-22T06:52:14;94623.88;;;26.04;100.00
13209;BME280;6669;42.678;23.332;2023-07-22T06:54:42;94625.72;;;26.09;100.00
13209;BME280;6669;42.678;23.332;2023-07-22T06:57:10;94619.31;;;26.20;100.00
13209;BME280;6669;42.678;23.332;2023-07-22T06:59:38;94613.19;;;26.20;100.00
13209;BME280;6669;42.678;23.332;2023-07-22T07:02:06;94604.16;;;26.16;100.00
13209;BME280;6669;42.678;23.332;2023-07-22T07:04:34;94603.28;;;26.41;100.00
13209;BME280;6669;42.678;23.332;2023-07-22T07:07:04;94605.41;;;26.44;100.00
13209;BME280;6669;42.678;23.332;2023-07-22T07:09:32;94616.53;;;26.62;100.00
13209;BME280;6669;42.678;23.332;2023-07-22T07:12:00;94616.78;;;26.65;100.00
13209;BME280;6669;42.678;23.332;2023-07-22T07:14:28;94611.66;;;26.69;100.00
13209;BME280;6669;42.678;23.332;2023-07-22T07:16:56;94597.50;;;26.84;100.00
13209;BME280;6669;42.678;23.332;2023-07-22T07:19:24;94606.47;;;26.98;100.00
13209;BME280;6669;42.678;23.332;2023-07-22T07:21:53;94594.81;;;26.89;100.00
13209;BME280;6669;42.678;23.332;2023-07-22T07:24:22;94608.94;;;26.95;100.00
13209;BME280;6669;42.678;23.332;2023-07-22T07:26:50;94597.16;;;26.96;100.00
13209;BME280;6669;42.678;23.332;2023-07-22T07:29:18;94594.22;;;27.02;100.00
13209;BME280;6669;42.678;23.332;2023-07-22T07:32:06;94596.28;;;27.11;100.00
13209;BME280;6669;42.678;23.332;2023-07-22T07:34:35;94597.25;;;27.25;100.00
13209;BME280;6669;42.678;23.332;2023-07-22T07:37:03;94589.97;;;27.36;100.00
13209;BME280;6669;42.678;23.332;2023-07-22T07:39:33;94593.94;;;27.44;100.00
13209;BME280;6669;42.678;23.332;2023-07-22T07:42:01;94586.94;;;27.48;100.00
13209;BME280;6669;42.678;23.332;2023-07-22T07:44:29;94587.72;;;27.53;100.00
13209;BME280;6669;42.678;23.332;2023-07-22T07:46:57;94588.50;;;27.54;100.00
13209;BME280;6669;42.678;23.332;2023-07-22T07:49:25;94590.63;;;27.57;100.00
13209;BME280;6669;42.678;23.332;2023-07-22T07:51:53;94587.78;;;27.48;100.00
13209;BME280;6669;42.678;23.332;2023-07-22T07:54:21;94582.06;;;27.60;100.00
13209;BME280;6669;42.678;23.332;2023-07-22T07:56:50;94580.06;;;27.76;100.00
13209;BME280;6669;42.678;23.332;2023-07-22T07:59:18;94583.22;;;27.78;100.00
13209;BME280;6669;42.678;23.332;2023-07-22T08:01:46;94586.78;;;27.98;100.00
13209;BME280;6669;42.678;23.332;2023-07-22T08:04:14;94569.81;;;28.13;100.00
13209;BME280;6669;42.678;23.332;2023-07-22T08:06:44;94591.59;;;28.25;100.00
13209;BME280;6669;42.678;23.332;2023-07-22T08:09:12;94579.47;;;27.79;100.00
13209;BME280;6669;42.678;23.332;2023-07-22T08:11:45;94581.91;;;27.76;100.00
13209;BME280;6669;42.678;23.332;2023-07-22T08:14:15;94580.06;;;27.76;100.00
13209;BME280;6669;42.678;23.332;2023-07-22T08:16:43;94579.94;;;27.86;100.00
13209;BME280;6669;42.678;23.332;2023-07-22T08:19:11;94575.53;;;28.01;100.00
13209;BME280;6669;42.678;23.332;2023-07-22T08:21:39;94581.53;;;28.17;100.00
13209;BME280;6669;42.678;23.332;2023-07-22T08:24:07;94572.19;;;28.38;100.00
13209;BME280;6669;42.678;23.332;2023-07-22T08:26:35;94569.03;;;28.55;100.00
13209;BME280;6669;42.678;23.332;2023-07-22T08:29:03;94573.72;;;28.69;100.00
13209;BME280;6669;42.678;23.332;2023-07-22T08:31:33;94583.13;;;28.66;100.00
13209;BME280;6669;42.678;23.332;2023-07-22T08:34:01;94575.50;;;28.74;100.00
13209;BME280;6669;42.678;23.332;2023-07-22T08:36:29;94554.75;;;28.65;100.00
13209;BME280;6669;42.678;23.332;2023-07-22T08:38:57;94559.16;;;28.75;100.00
13209;BME280;6669;42.678;23.332;2023-07-22T08:41:25;94546.03;;;28.79;100.00
13209;BME280;6669;42.678;23.332;2023-07-22T08:43:54;94538.50;;;28.81;100.00
13209;BME280;6669;42.678;23.332;2023-07-22T08:46:25;94539.75;;;28.89;100.00
13209;BME280;6669;42.678;23.332;2023-07-22T08:48:59;94537.50;;;28.96;100.00
13209;BME280;6669;42.678;23.332;2023-07-22T08:51:28;94532.06;;;29.01;100.00
13209;BME280;6669;42.678;23.332;2023-07-22T08:53:58;94524.09;;;29.15;100.00
13209;BME280;6669;42.678;23.332;2023-07-22T08:56:37;94529.78;;;29.27;100.00
13209;BME280;6669;42.678;23.332;2023-07-22T08:59:06;94531.25;;;29.52;100.00
13209;BME280;6669;42.678;23.332;2023-07-22T09:01:34;94526.44;;;29.68;100.00
13209;BME280;6669;42.678;23.332;2023-07-22T09:04:05;94521.50;;;29.76;100.00
13209;BME280;6669;42.678;23.332;2023-07-22T09:06:34;94521.88;;;29.83;100.00
13209;BME280;6669;42.678;23.332;2023-07-22T09:09:02;94517.75;;;30.05;100.00
13209;BME280;6669;42.678;23.332;2023-07-22T09:11:35;94524.50;;;30.16;100.00
13209;BME280;6669;42.678;23.332;2023-07-22T09:14:03;94514.50;;;30.22;100.00
13209;BME280;6669;42.678;23.332;2023-07-22T09:16:32;94519.34;;;30.33;100.00
13209;BME280;6669;42.678;23.332;2023-07-22T09:19:04;94516.44;;;30.44;100.00
13209;BME280;6669;42.678;23.332;2023-07-22T09:21:33;94521.19;;;30.61;100.00
13209;BME280;6669;42.678;23.332;2023-07-22T09:24:19;94518.38;;;30.66;100.00
13209;BME280;6669;42.678;23.332;2023-07-22T09:26:48;94517.59;;;30.65;100.00
13209;BME280;6669;42.678;23.332;2023-07-22T09:29:16;94510.06;;;30.68;100.00
13209;BME280;6669;42.678;23.332;2023-07-22T09:31:53;94509.78;;;30.55;100.00
13209;BME280;6669;42.678;23.332;2023-07-22T09:34:23;94510.34;;;30.66;100.00
13209;BME280;6669;42.678;23.332;2023-07-22T09:36:52;94513.00;;;30.80;100.00
13209;BME280;6669;42.678;23.332;2023-07-22T09:39:22;94504.41;;;31.06;100.00
13209;BME280;6669;42.678;23.332;2023-07-22T09:41:50;94508.47;;;31.26;100.00
13209;BME280;6669;42.678;23.332;2023-07-22T09:44:19;94502.28;;;31.48;100.00
13209;BME280;6669;42.678;23.332;2023-07-22T09:46:48;94498.50;;;31.72;100.00
13209;BME280;6669;42.678;23.332;2023-07-22T09:49:17;94501.63;;;31.74;100.00
13209;BME280;6669;42.678;23.332;2023-07-22T09:51:47;94491.72;;;31.83;100.00
13209;BME280;6669;42.678;23.332;2023-07-22T09:54:28;94492.59;;;32.01;100.00
13209;BME280;6669;42.678;23.332;2023-07-22T09:56:57;94488.47;;;32.04;100.00
13209;BME280;6669;42.678;23.332;2023-07-22T09:59:28;94486.59;;;32.13;99.51
13209;BME280;6669;42.678;23.332;2023-07-22T10:01:57;94481.19;;;32.04;97.68
13209;BME280;6669;42.678;23.332;2023-07-22T10:04:33;94479.56;;;32.35;96.73
13209;BME280;6669;42.678;23.332;2023-07-22T10:07:03;94472.13;;;32.49;91.93
13209;BME280;6669;42.678;23.332;2023-07-22T10:09:34;94474.84;;;32.67;95.66
13209;BME280;6669;42.678;23.332;2023-07-22T10:12:05;94479.59;;;32.87;92.64
13209;BME280;6669;42.678;23.332;2023-07-22T10:14:34;94474.72;;;32.89;86.33
13209;BME280;6669;42.678;23.332;2023-07-22T10:17:05;94469.66;;;32.88;84.96
13209;BME280;6669;42.678;23.332;2023-07-22T10:19:35;94476.75;;;32.84;87.39
13209;BME280;6669;42.678;23.332;2023-07-22T10:22:05;94470.91;;;32.99;86.62
13209;BME280;6669;42.678;23.332;2023-07-22T10:24:37;94468.03;;;33.13;86.25
13209;BME280;6669;42.678;23.332;2023-07-22T10:27:07;94459.81;;;33.01;83.37
13209;BME280;6669;42.678;23.332;2023-07-22T10:29:35;94467.84;;;33.36;84.33
13209;BME280;6669;42.678;23.332;2023-07-22T10:32:04;94465.94;;;33.45;80.37
13209;BME280;6669;42.678;23.332;2023-07-22T10:34:32;94469.72;;;33.44;80.27
13209;BME280;6669;42.678;23.332;2023-07-22T10:37:00;94484.81;;;33.28;80.91
13209;BME280;6669;42.678;23.332;2023-07-22T10:39:30;94445.47;;;33.44;79.91
13209;BME280;6669;42.678;23.332;2023-07-22T10:42:00;94460.63;;;33.66;77.92
13209;BME280;6669;42.678;23.332;2023-07-22T10:44:31;94455.16;;;33.45;69.72
13209;BME280;6669;42.678;23.332;2023-07-22T10:46:59;94491.63;;;33.43;68.08
13209;BME280;6669;42.678;23.332;2023-07-22T10:49:42;94469.56;;;33.49;65.92
13209;BME280;6669;42.678;23.332;2023-07-22T10:52:11;94469.72;;;33.53;66.16
13209;BME280;6669;42.678;23.332;2023-07-22T10:54:41;94464.34;;;33.44;66.02
13209;BME280;6669;42.678;23.332;2023-07-22T10:57:24;94445.47;;;33.44;65.41
13209;BME280;6669;42.678;23.332;2023-07-22T10:59:55;94455.22;;;33.66;66.40
13209;BME280;6669;42.678;23.332;2023-07-22T11:02:24;94450.69;;;33.97;66.37
13209;BME280;6669;42.678;23.332;2023-07-22T11:04:52;94452.16;;;34.45;62.83
13209;BME280;6669;42.678;23.332;2023-07-22T11:07:32;94450.31;;;34.58;62.42
13209;BME280;6669;42.678;23.332;2023-07-22T11:10:17;94444.06;;;34.88;61.27
13209;BME280;6669;42.678;23.332;2023-07-22T11:12:48;94447.13;;;35.32;58.70
13209;BME280;6669;42.678;23.332;2023-07-22T11:15:16;94471.06;;;35.55;58.71
13209;BME280;6669;42.678;23.332;2023-07-22T11:17:44;94434.38;;;35.66;58.29
13209;BME280;6669;42.678;23.332;2023-07-22T11:20:12;94437.13;;;35.91;58.48
13209;BME280;6669;42.678;23.332;2023-07-22T11:22:40;94455.13;;;35.87;57.04
13209;BME280;6669;42.678;23.332;2023-07-22T11:25:18;94432.03;;;36.14;56.54
13209;BME280;6669;42.678;23.332;2023-07-22T11:27:46;94444.63;;;36.47;56.49
13209;BME280;6669;42.678;23.332;2023-07-22T11:30:14;94446.28;;;36.92;55.68
13209;BME280;6669;42.678;23.332;2023-07-22T11:32:42;94445.59;;;36.55;54.54
13209;BME280;6669;42.678;23.332;2023-07-22T11:35:15;94426.66;;;36.55;55.10
13209;BME280;6669;42.678;23.332;2023-07-22T11:37:43;94420.16;;;36.43;54.79
13209;BME280;6669;42.678;23.332;2023-07-22T11:40:12;94439.72;;;36.65;54.03
13209;BME280;6669;42.678;23.332;2023-07-22T11:42:43;94430.09;;;36.39;54.64
13209;BME280;6669;42.678;23.332;2023-07-22T11:45:12;94430.91;;;36.03;54.22
13209;BME280;6669;42.678;23.332;2023-07-22T11:47:40;94414.66;;;36.03;55.51
13209;BME280;6669;42.678;23.332;2023-07-22T11:50:11;94416.56;;;36.68;54.53
13209;BME280;6669;42.678;23.332;2023-07-22T11:52:39;94406.19;;;36.98;53.98
13209;BME280;6669;42.678;23.332;2023-07-22T11:55:07;94415.72;;;36.79;53.80
13209;BME280;6669;42.678;23.332;2023-07-22T11:57:51;94405.84;;;36.71;52.96
13209;BME280;6669;42.678;23.332;2023-07-22T12:00:20;94412.44;;;37.14;52.81
13209;BME280;6669;42.678;23.332;2023-07-22T12:02:48;94403.25;;;36.75;53.38
13209;BME280;6669;42.678;23.332;2023-07-22T12:05:21;94421.22;;;36.67;54.32
13209;BME280;6669;42.678;23.332;2023-07-22T12:07:49;94415.84;;;36.55;54.21
13209;BME280;6669;42.678;23.332;2023-07-22T12:10:17;94413.34;;;36.90;54.50
13209;BME280;6669;42.678;23.332;2023-07-22T12:12:47;94395.69;;;36.68;54.64
13209;BME280;6669;42.678;23.332;2023-07-22T12:15:17;94403.66;;;36.89;54.67
13209;BME280;6669;42.678;23.332;2023-07-22T12:17:47;94400.78;;;37.14;53.95
13209;BME280;6669;42.678;23.332;2023-07-22T12:20:16;94397.16;;;37.22;53.75
13209;BME280;6669;42.678;23.332;2023-07-22T12:22:44;94391.84;;;37.58;53.73
13209;BME280;6669;42.678;23.332;2023-07-22T12:25:12;94384.06;;;37.56;53.75
13209;BME280;6669;42.678;23.332;2023-07-22T12:27:41;94389.63;;;37.16;54.10
13209;BME280;6669;42.678;23.332;2023-07-22T12:30:10;94395.28;;;36.54;54.78
13209;BME280;6669;42.678;23.332;2023-07-22T12:32:39;94395.88;;;36.75;54.29
13209;BME280;6669;42.678;23.332;2023-07-22T12:35:07;94384.50;;;36.41;55.75
13209;BME280;6669;42.678;23.332;2023-07-22T12:37:36;94384.84;;;36.27;56.18
13209;BME280;6669;42.678;23.332;2023-07-22T12:40:05;94390.00;;;35.79;56.99
13209;BME280;6669;42.678;23.332;2023-07-22T12:42:35;94377.81;;;35.73;56.33
13209;BME280;6669;42.678;23.332;2023-07-22T12:45:05;94381.91;;;36.45;55.70
13209;BME280;6669;42.678;23.332;2023-07-22T12:47:34;94375.06;;;37.36;55.42
13209;BME280;6669;42.678;23.332;2023-07-22T12:50:04;94376.94;;;38.00;53.49
13209;BME280;6669;42.678;23.332;2023-07-22T12:52:34;94372.94;;;38.49;53.79
13209;BME280;6669;42.678;23.332;2023-07-22T12:55:03;94378.53;;;38.36;51.63
13209;BME280;6669;42.678;23.332;2023-07-22T12:57:31;94381.69;;;38.22;51.22
13209;BME280;6669;42.678;23.332;2023-07-22T12:59:59;94378.19;;;38.22;51.05
13209;BME280;6669;42.678;23.332;2023-07-22T13:02:27;94361.09;;;38.02;51.22